Time;durP1;ratioP1;P1;durP2;ratioP2;P2;SDS_P1;SDS_P2;PMS_P1;PMS_P2;Temp;Humidity;BMP_temperature;BMP_pressure;BME280_temperature;BME280_humidity;BME280_pressure;Samples;Min_cycle;Max_cycle;Signal;HPM_P1;HPM_P2
2024/04/13 00:00:38;;;;;;;23.25;21.15;;;15.20;99.90;;;;;;5384040;26;20022;-76
2024/04/13 00:03:06;;;;;;;22.60;20.30;;;15.20;99.90;;;;;;5385305;26;20014;-74
2024/04/13 00:05:33;;;;;;;21.55;19.73;;;15.20;99.90;;;;;;5355843;26;20473;-75
2024/04/13 00:08:04;;;;;;;22.35;20.38;;;15.10;99.90;;;;;;5391123;26;19999;-75
2024/04/13 00:10:32;;;;;;;22.20;20.00;;;15.10;99.90;;;;;;5382554;26;20846;-74
2024/04/13 00:13:02;;;;;;;21.70;19.95;;;15.10;99.90;;;;;;5383471;26;20003;-75
2024/04/13 00:15:30;;;;;;;21.27;19.45;;;15.10;99.90;;;;;;5381532;26;20073;-75
2024/04/13 00:17:58;;;;;;;23.90;21.58;;;15.00;99.90;;;;;;5389898;26;20004;-75
2024/04/13 00:20:26;;;;;;;22.30;20.15;;;15.00;99.90;;;;;;5391220;26;20509;-74
2024/04/13 00:22:55;;;;;;;22.65;20.45;;;15.00;99.90;;;;;;5394763;26;20024;-73
2024/04/13 00:25:23;;;;;;;23.10;20.48;;;15.00;99.90;;;;;;5376779;26;20685;-74
2024/04/13 00:27:53;;;;;;;22.90;20.42;;;15.00;99.90;;;;;;5412025;26;20104;-74
2024/04/13 00:30:20;;;;;;;23.05;20.75;;;15.00;99.90;;;;;;5409279;26;20688;-75
2024/04/13 00:32:48;;;;;;;24.10;21.35;;;15.00;99.90;;;;;;5390473;26;20000;-74
2024/04/13 00:35:15;;;;;;;23.65;21.27;;;14.90;99.90;;;;;;5386490;26;19995;-74
2024/04/13 00:37:42;;;;;;;23.70;20.63;;;14.90;99.90;;;;;;5390509;26;19996;-75
2024/04/13 00:40:10;;;;;;;23.52;21.23;;;14.90;99.90;;;;;;5407452;26;20057;-75
2024/04/13 00:42:39;;;;;;;23.00;20.77;;;14.90;99.90;;;;;;5393882;26;20004;-75
2024/04/13 00:45:07;;;;;;;23.83;21.42;;;14.90;99.90;;;;;;5355423;26;20011;-76
2024/04/13 00:47:37;;;;;;;23.02;20.85;;;14.90;99.90;;;;;;5375827;26;20022;-76
2024/04/13 00:50:12;;;;;;;22.63;20.63;;;14.90;99.90;;;;;;5390298;26;20000;-74
2024/04/13 00:52:44;;;;;;;24.70;21.33;;;14.80;99.90;;;;;;5370306;26;20000;-75
2024/04/13 00:55:12;;;;;;;23.50;21.23;;;14.80;99.90;;;;;;5355203;26;20003;-75
2024/04/13 00:57:40;;;;;;;25.63;21.95;;;14.70;99.90;;;;;;5377534;26;20319;-74
2024/04/13 01:00:12;;;;;;;23.63;21.23;;;14.70;99.90;;;;;;5352184;26;19995;-74
2024/04/13 01:02:43;;;;;;;24.42;21.83;;;14.70;99.90;;;;;;5383408;26;20889;-74
2024/04/13 01:05:18;;;;;;;26.77;21.50;;;14.70;99.90;;;;;;5387535;26;20073;-75
2024/04/13 01:07:46;;;;;;;22.60;20.42;;;14.60;99.90;;;;;;5392201;26;20000;-74
2024/04/13 01:10:16;;;;;;;24.00;21.55;;;14.60;99.90;;;;;;5387807;26;20039;-74
2024/04/13 01:12:49;;;;;;;24.35;21.85;;;14.50;99.90;;;;;;5394512;26;20012;-74
2024/04/13 01:15:18;;;;;;;24.15;22.05;;;14.50;99.90;;;;;;5392779;26;20664;-73
2024/04/13 01:17:49;;;;;;;28.15;22.77;;;14.40;99.90;;;;;;5379917;26;20018;-74
2024/04/13 01:20:17;;;;;;;25.00;22.33;;;14.30;99.90;;;;;;5382641;26;20076;-74
2024/04/13 01:22:45;;;;;;;23.80;21.00;;;14.30;99.90;;;;;;5375587;26;20031;-74
2024/04/13 01:25:15;;;;;;;24.23;21.95;;;14.20;99.90;;;;;;5385771;26;20068;-73
2024/04/13 01:27:42;;;;;;;24.75;21.88;;;14.20;99.90;;;;;;5378856;26;20004;-74
2024/04/13 01:30:13;;;;;;;24.73;22.52;;;14.20;99.90;;;;;;5354953;26;20441;-74
2024/04/13 01:32:42;;;;;;;22.95;20.45;;;14.20;99.90;;;;;;5353734;26;20010;-75
2024/04/13 01:35:10;;;;;;;23.65;21.17;;;14.10;99.90;;;;;;5385506;26;20068;-73
2024/04/13 01:37:38;;;;;;;25.25;22.10;;;14.10;99.90;;;;;;5361439;26;20016;-74
2024/04/13 01:40:06;;;;;;;25.45;22.85;;;14.10;99.90;;;;;;5389200;26;20724;-73
2024/04/13 01:42:39;;;;;;;24.75;22.05;;;14.00;99.90;;;;;;5379712;26;20003;-74
2024/04/13 01:45:06;;;;;;;26.67;21.20;;;14.00;99.90;;;;;;5381307;26;20056;-74
2024/04/13 01:47:33;;;;;;;24.10;21.60;;;14.00;99.90;;;;;;5382617;26;19999;-74
2024/04/13 01:50:02;;;;;;;23.70;21.20;;;14.00;99.90;;;;;;5357590;26;20076;-74
2024/04/13 01:52:29;;;;;;;24.55;22.25;;;13.90;99.90;;;;;;5380916;26;20060;-73
2024/04/13 01:54:59;;;;;;;24.80;21.88;;;14.00;99.90;;;;;;5388101;26;20012;-75
2024/04/13 01:57:26;;;;;;;24.20;21.95;;;14.00;99.90;;;;;;5342056;26;20000;-72
2024/04/13 01:59:54;;;;;;;27.38;23.02;;;13.90;99.90;;;;;;5348100;26;20406;-75
2024/04/13 02:02:21;;;;;;;29.20;22.83;;;14.00;99.90;;;;;;5348987;26;20004;-75
2024/04/13 02:04:48;;;;;;;25.52;21.85;;;13.90;99.90;;;;;;5375809;26;20076;-75
2024/04/13 02:07:16;;;;;;;24.00;21.48;;;13.90;99.90;;;;;;5379088;26;20453;-75
2024/04/13 02:09:43;;;;;;;24.42;21.88;;;13.90;99.90;;;;;;5382762;26;20631;-76
2024/04/13 02:12:11;;;;;;;24.85;21.90;;;13.90;99.90;;;;;;5391185;26;20153;-75
2024/04/13 02:14:38;;;;;;;25.92;21.88;;;13.90;99.90;;;;;;5384733;26;20082;-74
2024/04/13 02:17:06;;;;;;;29.27;22.27;;;13.90;99.90;;;;;;5376154;26;20007;-74
2024/04/13 02:19:33;;;;;;;24.75;21.77;;;13.90;99.90;;;;;;5318712;26;20001;-75
2024/04/13 02:22:01;;;;;;;27.25;22.67;;;13.90;99.90;;;;;;5376516;26;20011;-75
2024/04/13 02:24:29;;;;;;;25.95;22.80;;;13.90;99.90;;;;;;5379252;26;20004;-72
2024/04/13 02:26:57;;;;;;;27.23;22.05;;;13.80;99.90;;;;;;5351394;26;20023;-74
2024/04/13 02:29:27;;;;;;;23.95;21.60;;;13.80;99.90;;;;;;5384547;26;20029;-75
2024/04/13 02:31:55;;;;;;;25.98;22.38;;;13.70;99.90;;;;;;5385984;26;20007;-76
2024/04/13 02:34:22;;;;;;;25.55;22.38;;;13.70;99.90;;;;;;5354557;26;20004;-77
2024/04/13 02:36:48;;;;;;;29.10;24.05;;;13.80;99.90;;;;;;5342685;26;20036;-75
2024/04/13 02:39:18;;;;;;;26.88;24.02;;;13.70;99.90;;;;;;5371590;26;19992;-75
2024/04/13 02:41:45;;;;;;;24.17;21.67;;;13.70;99.90;;;;;;5417989;26;21653;-74
2024/04/13 02:44:13;;;;;;;27.58;23.35;;;13.70;99.90;;;;;;5408983;26;20003;-74
2024/04/13 02:46:42;;;;;;;26.10;22.95;;;13.70;99.90;;;;;;5366594;26;20000;-75
2024/04/13 02:49:10;;;;;;;25.08;22.77;;;13.60;99.90;;;;;;5382075;26;20080;-75
2024/04/13 02:51:37;;;;;;;25.23;22.48;;;13.60;99.90;;;;;;5353372;26;20067;-74
2024/04/13 02:54:06;;;;;;;25.92;23.15;;;13.60;99.90;;;;;;5349167;26;20690;-75
2024/04/13 02:56:33;;;;;;;24.83;22.20;;;13.50;99.90;;;;;;5394714;26;20022;-75
2024/04/13 02:59:04;;;;;;;25.10;22.52;;;13.60;99.90;;;;;;5384180;26;20011;-74
2024/04/13 03:01:33;;;;;;;24.73;22.30;;;13.60;99.90;;;;;;5352657;26;20008;-75
2024/04/13 03:04:01;;;;;;;27.75;23.48;;;13.70;99.90;;;;;;5355624;26;20011;-74
2024/04/13 03:06:28;;;;;;;26.85;22.80;;;13.70;99.90;;;;;;5375226;26;20075;-74
2024/04/13 03:08:55;;;;;;;26.80;23.90;;;13.70;99.90;;;;;;5405007;26;20715;-75
2024/04/13 03:11:22;;;;;;;28.83;23.55;;;13.60;99.90;;;;;;5386550;26;20747;-75
2024/04/13 03:13:50;;;;;;;30.60;22.58;;;13.70;99.90;;;;;;5365461;26;20076;-74
2024/04/13 03:16:17;;;;;;;26.45;23.67;;;13.60;99.90;;;;;;5369578;26;20655;-75
2024/04/13 03:18:46;;;;;;;29.15;23.52;;;13.60;99.90;;;;;;5349022;26;20019;-74
2024/04/13 03:21:13;;;;;;;26.17;23.55;;;13.70;99.90;;;;;;5357487;26;20055;-74
2024/04/13 03:23:42;;;;;;;25.73;23.05;;;13.70;99.90;;;;;;5378262;26;20031;-74
2024/04/13 03:26:11;;;;;;;27.30;24.63;;;13.70;99.90;;;;;;5382386;26;20507;-75
2024/04/13 03:28:38;;;;;;;25.35;22.65;;;13.70;99.90;;;;;;5371124;26;20019;-75
2024/04/13 03:31:05;;;;;;;26.02;23.20;;;13.70;99.90;;;;;;5344016;26;20054;-74
2024/04/13 03:33:33;;;;;;;25.60;22.85;;;13.70;99.90;;;;;;5326710;26;20008;-74
2024/04/13 03:36:01;;;;;;;25.85;23.13;;;13.70;99.90;;;;;;5372739;26;20059;-74
2024/04/13 03:38:28;;;;;;;25.50;22.80;;;13.80;99.90;;;;;;5361746;26;20055;-76
2024/04/13 03:41:01;;;;;;;24.95;22.25;;;13.90;99.90;;;;;;5355546;26;20014;-73
2024/04/13 03:43:30;;;;;;;25.25;22.52;;;14.00;99.90;;;;;;5367235;26;20358;-74
2024/04/13 03:45:59;;;;;;;26.00;21.42;;;14.00;99.90;;;;;;5388625;26;19999;-75
2024/04/13 03:48:26;;;;;;;24.98;21.10;;;14.10;99.90;;;;;;5382214;26;20014;-74
2024/04/13 03:50:55;;;;;;;26.20;22.20;;;14.20;99.90;;;;;;5361512;26;20232;-74
2024/04/13 03:53:22;;;;;;;25.38;21.75;;;14.30;99.90;;;;;;5363841;26;20010;-74
2024/04/13 03:55:50;;;;;;;27.38;20.88;;;14.30;99.90;;;;;;5347155;26;22355;-74
2024/04/13 03:58:17;;;;;;;24.02;21.70;;;14.30;99.90;;;;;;5344530;26;20118;-74
2024/04/13 04:00:44;;;;;;;24.23;21.52;;;14.40;99.90;;;;;;5339207;26;20003;-74
2024/04/13 04:03:12;;;;;;;25.10;20.77;;;14.40;99.90;;;;;;5342444;26;20015;-74
2024/04/13 04:05:39;;;;;;;24.42;21.02;;;14.40;99.90;;;;;;5352236;26;20335;-75
2024/04/13 04:08:09;;;;;;;22.35;20.15;;;14.40;99.90;;;;;;5389727;26;20003;-75
2024/04/13 04:10:36;;;;;;;25.60;20.33;;;14.40;99.90;;;;;;5365312;26;20010;-75
2024/04/13 04:13:05;;;;;;;24.55;20.45;;;14.50;99.90;;;;;;5353409;26;20077;-76
2024/04/13 04:15:35;;;;;;;24.38;21.27;;;14.50;99.90;;;;;;5346692;26;20007;-73
2024/04/13 04:18:03;;;;;;;23.08;20.70;;;14.50;99.90;;;;;;5353828;26;20024;-74
2024/04/13 04:20:34;;;;;;;22.90;20.55;;;14.50;99.90;;;;;;5328491;26;20596;-74
2024/04/13 04:23:02;;;;;;;25.98;20.85;;;14.50;99.90;;;;;;5384207;26;20083;-73
2024/04/13 04:25:31;;;;;;;22.35;20.27;;;14.50;99.90;;;;;;5387473;26;20014;-74
2024/04/13 04:28:01;;;;;;;23.52;21.23;;;14.50;99.90;;;;;;5317607;26;20019;-73
2024/04/13 04:30:28;;;;;;;22.30;20.30;;;14.50;99.90;;;;;;5357914;26;20004;-73
2024/04/13 04:32:56;;;;;;;25.85;23.42;;;14.50;99.90;;;;;;5340248;26;20980;-75
2024/04/13 04:35:27;;;;;;;24.27;20.90;;;14.50;99.90;;;;;;5343386;26;20011;-75
2024/04/13 04:37:54;;;;;;;22.98;20.58;;;14.50;99.90;;;;;;5341239;26;20028;-74
2024/04/13 04:40:22;;;;;;;28.02;21.45;;;14.50;99.90;;;;;;5353603;26;20001;-73
2024/04/13 04:42:50;;;;;;;25.52;21.17;;;14.50;99.90;;;;;;5313287;26;20063;-74
2024/04/13 04:45:18;;;;;;;24.45;21.20;;;14.50;99.90;;;;;;5329006;26;19996;-75
2024/04/13 04:47:47;;;;;;;22.90;20.83;;;14.50;99.90;;;;;;5353169;26;20665;-74
2024/04/13 04:50:14;;;;;;;22.88;20.65;;;14.40;99.90;;;;;;5384262;26;20081;-75
2024/04/13 04:52:43;;;;;;;22.63;20.63;;;14.40;99.90;;;;;;5380707;26;20007;-75
2024/04/13 04:55:11;;;;;;;26.42;23.85;;;14.30;99.90;;;;;;5349654;26;20000;-75
2024/04/13 04:57:38;;;;;;;24.95;22.42;;;14.30;99.90;;;;;;5381822;26;20007;-74
2024/04/13 05:00:13;;;;;;;25.27;22.67;;;14.30;99.90;;;;;;5385373;26;20011;-74
2024/04/13 05:02:41;;;;;;;25.23;22.67;;;14.30;99.90;;;;;;5374408;26;20000;-73
2024/04/13 05:05:09;;;;;;;25.10;21.80;;;14.30;99.90;;;;;;5392632;26;20116;-73
2024/04/13 05:07:39;;;;;;;23.83;21.60;;;14.30;99.90;;;;;;5389917;26;20007;-73
2024/04/13 05:10:08;;;;;;;23.90;21.58;;;14.30;99.90;;;;;;5399753;26;20003;-74
2024/04/13 05:12:35;;;;;;;26.90;22.83;;;14.20;99.90;;;;;;5383498;26;20747;-72
2024/04/13 05:15:03;;;;;;;27.25;22.38;;;14.20;99.90;;;;;;5387157;26;20015;-74
2024/04/13 05:17:30;;;;;;;23.42;21.08;;;14.20;99.90;;;;;;5396010;26;20007;-73
2024/04/13 05:19:57;;;;;;;25.58;22.67;;;14.20;99.90;;;;;;5352045;26;20043;-74
2024/04/13 05:22:24;;;;;;;25.83;22.65;;;14.20;99.90;;;;;;5375914;26;20011;-73
2024/04/13 05:24:51;;;;;;;24.35;22.13;;;14.20;99.90;;;;;;5381756;26;20016;-74
2024/04/13 05:27:19;;;;;;;26.25;21.95;;;14.30;99.90;;;;;;5361829;26;20032;-73
2024/04/13 05:29:52;;;;;;;28.40;23.77;;;14.30;99.90;;;;;;5374158;26;19999;-73
2024/04/13 05:32:19;;;;;;;25.55;22.80;;;14.30;99.90;;;;;;5406275;26;20006;-73
2024/04/13 05:34:49;;;;;;;25.17;22.75;;;14.30;99.90;;;;;;5381354;26;20104;-74
2024/04/13 05:37:17;;;;;;;24.05;21.88;;;14.30;99.90;;;;;;5386773;26;20024;-74
2024/04/13 05:39:44;;;;;;;24.95;22.50;;;14.30;99.90;;;;;;5385688;26;20429;-73
2024/04/13 05:42:11;;;;;;;25.58;23.08;;;14.30;99.90;;;;;;5412553;26;20004;-73
2024/04/13 05:44:41;;;;;;;24.13;21.73;;;14.40;99.90;;;;;;5382716;26;20047;-73
2024/04/13 05:47:08;;;;;;;25.17;22.73;;;14.40;99.90;;;;;;5381122;26;19995;-75
2024/04/13 05:49:35;;;;;;;25.42;22.90;;;14.40;99.90;;;;;;5388562;26;20023;-76
2024/04/13 05:52:04;;;;;;;26.15;23.52;;;14.40;99.90;;;;;;5388282;26;20142;-75
2024/04/13 05:54:33;;;;;;;25.92;23.17;;;14.50;99.90;;;;;;5388305;26;20036;-75
2024/04/13 05:57:02;;;;;;;25.13;22.58;;;14.50;99.90;;;;;;5381945;26;20018;-75
2024/04/13 05:59:29;;;;;;;27.70;24.42;;;14.60;99.90;;;;;;5380273;26;20026;-75
2024/04/13 06:01:57;;;;;;;26.30;23.55;;;14.60;99.90;;;;;;5380451;26;20018;-74
2024/04/13 06:04:25;;;;;;;25.05;22.52;;;14.70;99.90;;;;;;5353078;26;21436;-75
2024/04/13 06:06:52;;;;;;;26.52;23.88;;;14.70;99.90;;;;;;5372701;26;20004;-74
2024/04/13 06:09:19;;;;;;;25.80;23.38;;;14.70;99.90;;;;;;5375411;26;20004;-76
2024/04/13 06:11:46;;;;;;;26.95;24.38;;;14.80;99.90;;;;;;5366336;26;20366;-74
2024/04/13 06:14:15;;;;;;;27.10;23.85;;;14.80;99.90;;;;;;5385018;26;20754;-76
2024/04/13 06:16:42;;;;;;;25.80;23.38;;;14.90;99.90;;;;;;5394407;26;20007;-73
2024/04/13 06:19:13;;;;;;;27.00;24.52;;;14.90;99.90;;;;;;5379286;26;20021;-75
2024/04/13 06:21:40;;;;;;;27.60;24.63;;;15.00;99.90;;;;;;5380405;26;20058;-76
2024/04/13 06:24:08;;;;;;;25.10;22.38;;;15.10;99.90;;;;;;5390125;26;20517;-73
2024/04/13 06:26:35;;;;;;;25.25;22.67;;;15.10;99.90;;;;;;5352128;26;20498;-75
2024/04/13 06:29:03;;;;;;;33.17;23.55;;;15.10;99.90;;;;;;5388636;26;20022;-76
2024/04/13 06:31:30;;;;;;;25.90;23.35;;;15.20;99.90;;;;;;5397119;26;20074;-75
2024/04/13 06:33:58;;;;;;;27.70;24.95;;;15.30;99.90;;;;;;5351932;26;20008;-75
2024/04/13 06:36:25;;;;;;;26.20;23.60;;;15.40;99.90;;;;;;5360516;26;20015;-77
2024/04/13 06:38:53;;;;;;;24.17;22.25;;;15.50;99.90;;;;;;5387308;26;20003;-74
2024/04/13 06:41:20;;;;;;;25.48;23.17;;;15.50;99.90;;;;;;5390537;26;20014;-75
2024/04/13 06:43:48;;;;;;;24.95;22.65;;;15.60;99.90;;;;;;5384085;26;20076;-74
2024/04/13 06:46:22;;;;;;;26.83;24.30;;;15.70;99.90;;;;;;5363903;26;20000;-77
2024/04/13 06:48:49;;;;;;;26.27;23.85;;;15.80;99.90;;;;;;5375803;26;20006;-76
2024/04/13 06:51:19;;;;;;;27.48;24.55;;;15.90;99.90;;;;;;5401242;26;20102;-75
2024/04/13 06:53:46;;;;;;;28.92;26.70;;;15.90;99.90;;;;;;5355276;26;20021;-74
2024/04/13 06:56:14;;;;;;;26.40;24.05;;;15.90;99.90;;;;;;5391473;26;20018;-75
2024/04/13 06:58:43;;;;;;;28.10;25.15;;;15.90;99.90;;;;;;5376789;26;20526;-77
2024/04/13 07:01:10;;;;;;;27.67;25.02;;;16.00;99.90;;;;;;5400705;26;20018;-74
2024/04/13 07:03:40;;;;;;;27.13;24.83;;;16.00;99.90;;;;;;5385115;26;20000;-72
2024/04/13 07:06:08;;;;;;;26.52;24.17;;;16.10;99.90;;;;;;5373148;26;19989;-74
2024/04/13 07:08:35;;;;;;;28.73;25.90;;;16.10;99.90;;;;;;5320098;26;20413;-77
2024/04/13 07:11:10;;;;;;;;;;;16.20;99.90;;;;;;5348554;26;19996;-75
2024/04/13 07:13:38;;;;;;;27.20;24.63;;;16.20;99.90;;;;;;5320901;26;19926;-75
2024/04/13 07:16:05;;;;;;;26.95;24.45;;;16.30;99.90;;;;;;5331613;26;23047;-77
2024/04/13 07:18:35;;;;;;;27.58;25.02;;;16.40;99.90;;;;;;5377026;26;20005;-75
2024/04/13 07:21:03;;;;;;;28.92;26.08;;;16.50;99.90;;;;;;5343767;26;19997;-75
2024/04/13 07:23:30;;;;;;;27.55;25.00;;;16.60;99.90;;;;;;5350570;26;20011;-75
2024/04/13 07:26:01;;;;;;;30.38;26.90;;;16.60;99.90;;;;;;5349001;26;20473;-76
2024/04/13 07:28:30;;;;;;;27.10;24.88;;;16.70;99.90;;;;;;5354398;26;20466;-75
2024/04/13 07:30:58;;;;;;;28.60;26.40;;;16.70;99.90;;;;;;5354683;26;20000;-74
2024/04/13 07:33:27;;;;;;;29.33;27.02;;;16.80;99.90;;;;;;5356153;26;20011;-73
2024/04/13 07:35:55;;;;;;;28.52;25.73;;;16.90;99.90;;;;;;5374449;26;20019;-75
2024/04/13 07:38:24;;;;;;;28.95;26.45;;;16.90;99.90;;;;;;5379494;26;20018;-75
2024/04/13 07:40:52;;;;;;;27.63;25.45;;;17.00;99.90;;;;;;5374322;26;20051;-74
2024/04/13 07:43:20;;;;;;;30.05;27.48;;;17.00;99.90;;;;;;5388330;26;20007;-75
2024/04/13 07:45:51;;;;;;;29.52;27.08;;;17.00;99.90;;;;;;5371877;26;20000;-74
2024/04/13 07:48:18;;;;;;;29.00;26.42;;;17.10;99.90;;;;;;5318169;26;20001;-77
2024/04/13 07:50:45;;;;;;;30.40;28.20;;;17.20;99.90;;;;;;5320761;26;20033;-75
2024/04/13 07:53:13;;;;;;;29.42;27.15;;;17.20;99.90;;;;;;5350193;26;20001;-76
2024/04/13 07:55:39;;;;;;;30.83;28.13;;;17.30;99.90;;;;;;5356476;26;20014;-76
2024/04/13 07:58:07;;;;;;;33.70;30.83;;;17.50;99.90;;;;;;5347544;26;22284;-76
2024/04/13 08:00:34;;;;;;;33.33;30.52;;;17.60;99.90;;;;;;5360986;26;19999;-76
2024/04/13 08:03:01;;;;;;;36.20;32.90;;;17.70;99.90;;;;;;5376464;26;20003;-75
2024/04/13 08:05:29;;;;;;;36.03;32.55;;;17.50;99.90;;;;;;5390670;26;20004;-75
2024/04/13 08:07:56;;;;;;;34.25;31.10;;;17.50;99.90;;;;;;5382842;26;19999;-76
2024/04/13 08:10:23;;;;;;;33.63;30.83;;;17.50;99.90;;;;;;5386766;26;20070;-76
2024/04/13 08:12:50;;;;;;;36.80;33.88;;;17.50;99.90;;;;;;5384627;26;19995;-75
2024/04/13 08:15:17;;;;;;;37.10;34.40;;;17.50;99.90;;;;;;5388158;26;20021;-76
2024/04/13 08:17:45;;;;;;;34.88;32.10;;;17.70;99.90;;;;;;5388273;26;20003;-75
2024/04/13 08:20:12;;;;;;;35.70;33.33;;;17.80;99.90;;;;;;5383558;26;20418;-74
2024/04/13 08:22:42;;;;;;;38.97;36.15;;;17.80;99.90;;;;;;5389019;26;20004;-74
2024/04/13 08:25:09;;;;;;;38.65;35.70;;;17.90;99.90;;;;;;5383028;26;20003;-74
2024/04/13 08:27:36;;;;;;;35.33;32.63;;;17.90;99.90;;;;;;5373307;26;20050;-75
2024/04/13 08:30:04;;;;;;;37.75;34.60;;;18.10;99.90;;;;;;5380875;26;20000;-75
2024/04/13 08:32:31;;;;;;;38.13;35.40;;;18.10;99.90;;;;;;5389382;26;20021;-76
2024/04/13 08:34:58;;;;;;;37.28;34.58;;;18.20;99.90;;;;;;5347023;26;20669;-75
2024/04/13 08:37:27;;;;;;;38.58;35.38;;;18.40;99.90;;;;;;5384259;26;20013;-76
2024/04/13 08:39:54;;;;;;;39.70;36.85;;;18.60;99.90;;;;;;5379897;26;20716;-78
2024/04/13 08:42:36;;;;;;;40.05;37.55;;;18.60;99.90;;;;;;5324286;26;20061;-74
2024/04/13 08:45:09;;;;;;;39.38;36.70;;;18.50;99.90;;;;;;5317104;26;20001;-74
2024/04/13 08:47:41;;;;;;;40.17;37.67;;;18.70;99.90;;;;;;5374822;26;20024;-75
2024/04/13 08:50:09;;;;;;;37.63;34.85;;;19.00;99.90;;;;;;5381267;26;22320;-74
2024/04/13 08:52:39;;;;;;;36.45;33.92;;;19.20;99.90;;;;;;5355878;26;20008;-75
2024/04/13 08:55:07;;;;;;;37.00;34.42;;;19.40;99.90;;;;;;5346738;26;20073;-75
2024/04/13 08:57:37;;;;;;;35.28;32.58;;;19.20;99.90;;;;;;5378799;26;20073;-73
2024/04/13 09:00:14;;;;;;;34.95;32.83;;;19.10;99.90;;;;;;5357858;26;19999;-75
2024/04/13 09:02:45;;;;;;;33.88;31.38;;;19.10;99.90;;;;;;5388778;26;20019;-76
2024/04/13 09:05:15;;;;;;;33.67;31.63;;;18.90;99.90;;;;;;5378960;26;20370;-76
2024/04/13 09:07:44;;;;;;;36.40;34.13;;;18.90;99.90;;;;;;5356271;26;20044;-74
2024/04/13 09:10:11;;;;;;;35.55;33.30;;;19.00;99.90;;;;;;5336677;26;20757;-74
2024/04/13 09:12:38;;;;;;;36.53;34.22;;;19.30;99.90;;;;;;5337939;26;20008;-76
2024/04/13 09:15:07;;;;;;;36.88;34.50;;;19.50;99.90;;;;;;5323245;26;19997;-73
2024/04/13 09:17:35;;;;;;;37.92;35.63;;;19.30;99.90;;;;;;5346348;26;20008;-75
2024/04/13 09:20:07;;;;;;;40.03;37.53;;;19.40;99.90;;;;;;5332655;26;20004;-75
2024/04/13 09:22:36;;;;;;;38.65;36.15;;;19.60;99.90;;;;;;5358039;26;20007;-75
2024/04/13 09:25:03;;;;;;;41.50;38.90;;;19.70;99.90;;;;;;5375131;26;20007;-75
2024/04/13 09:27:31;;;;;;;39.08;36.55;;;19.80;99.90;;;;;;5357846;26;20019;-76
2024/04/13 09:30:09;;;;;;;41.83;38.85;;;19.80;99.90;;;;;;5344314;26;20001;-73
2024/04/13 09:32:38;;;;;;;41.10;38.35;;;19.70;99.90;;;;;;5392118;26;20012;-75
2024/04/13 09:35:12;;;;;;;43.17;40.50;;;19.80;99.90;;;;;;5381725;26;20010;-76
2024/04/13 09:37:40;;;;;;;44.15;41.40;;;19.80;99.90;;;;;;5359144;26;20018;-75
2024/04/13 09:40:10;;;;;;;44.60;41.78;;;19.90;99.90;;;;;;5387999;26;20015;-75
2024/04/13 09:42:38;;;;;;;42.25;39.85;;;20.00;99.90;;;;;;5389224;26;20000;-75
2024/04/13 09:45:11;;;;;;;42.90;40.33;;;20.00;99.90;;;;;;5378201;26;20010;-75
2024/04/13 09:47:38;;;;;;;44.15;41.28;;;20.00;99.90;;;;;;5413069;26;20770;-78
2024/04/13 09:50:06;;;;;;;44.63;41.78;;;20.10;99.90;;;;;;5379567;26;19995;-76
2024/04/13 09:52:34;;;;;;;42.88;40.47;;;20.30;99.90;;;;;;5385238;26;20047;-76
2024/04/13 09:55:02;;;;;;;41.55;38.80;;;20.20;99.90;;;;;;5348657;26;20015;-76
2024/04/13 09:57:29;;;;;;;41.58;38.75;;;20.10;99.90;;;;;;5349891;26;20311;-75
2024/04/13 09:59:57;;;;;;;41.53;38.22;;;20.10;99.90;;;;;;5306392;26;20016;-76
2024/04/13 10:02:24;;;;;;;39.13;36.70;;;20.20;99.90;;;;;;5376117;26;20035;-75
2024/04/13 10:04:51;;;;;;;38.80;36.30;;;20.20;99.90;;;;;;5354137;26;20758;-76
2024/04/13 10:07:22;;;;;;;39.40;36.80;;;20.20;99.90;;;;;;5350185;26;20035;-75
2024/04/13 10:09:54;;;;;;;37.78;35.08;;;20.20;99.90;;;;;;5351512;26;20533;-75
2024/04/13 10:12:25;;;;;;;37.22;34.75;;;20.30;99.90;;;;;;5345931;26;20000;-74
2024/04/13 10:14:55;;;;;;;37.33;34.45;;;20.10;99.90;;;;;;5350941;26;20081;-75
2024/04/13 10:17:24;;;;;;;36.88;33.90;;;19.90;99.90;;;;;;5356921;26;20602;-77
2024/04/13 10:19:58;;;;;;;36.63;33.97;;;19.80;99.90;;;;;;5368977;26;20004;-75
2024/04/13 10:22:58;;;;;;;36.17;33.55;;;19.90;99.90;;;;;;5370324;26;20004;-75
2024/04/13 10:25:31;;;;;;;36.70;34.22;;;19.90;99.90;;;;;;5366252;26;20010;-76
2024/04/13 10:28:13;;;;;;;39.00;36.40;;;20.00;99.90;;;;;;5342535;26;20038;-76
2024/04/13 10:30:58;;;;;;;42.72;40.05;;;20.10;99.90;;;;;;5363918;26;20037;-74
2024/04/13 10:33:52;;;;;;;43.15;40.13;;;20.20;99.90;;;;;;5351748;26;20385;-77
2024/04/13 10:36:41;;;;;;;45.15;42.13;;;20.60;99.90;;;;;;5370650;26;20020;-75
2024/04/13 10:39:21;;;;;;;39.10;36.53;;;20.90;99.90;;;;;;5336741;26;20004;-73
2024/04/13 10:41:50;;;;;;;39.97;37.25;;;21.10;99.90;;;;;;5346282;26;20001;-76
2024/04/13 10:44:25;;;;;;;42.42;39.40;;;21.10;99.90;;;;;;5348515;26;20591;-74
2024/04/13 10:47:04;;;;;;;44.45;41.00;;;21.20;99.90;;;;;;5379308;26;20026;-75
2024/04/13 10:49:33;;;;;;;45.03;42.13;;;21.10;99.90;;;;;;5356473;26;20027;-74
2024/04/13 10:52:01;;;;;;;42.22;39.72;;;21.00;99.90;;;;;;5385054;26;20074;-75
2024/04/13 10:54:29;;;;;;;41.28;38.63;;;21.20;99.90;;;;;;5386828;26;20000;-75
2024/04/13 10:56:58;;;;;;;44.47;41.38;;;21.20;99.90;;;;;;5424976;26;20002;-74
2024/04/13 10:59:36;;;;;;;45.92;43.38;;;20.80;99.90;;;;;;5352073;26;20035;-75
2024/04/13 11:02:07;;;;;;;43.42;40.55;;;20.90;99.90;;;;;;5368340;26;20028;-74
2024/04/13 11:04:44;;;;;;;41.40;38.50;;;21.00;99.90;;;;;;5358781;26;20019;-75
2024/04/13 11:07:13;;;;;;;44.85;42.15;;;21.00;99.90;;;;;;5355936;26;19996;-73
2024/04/13 11:09:45;;;;;;;47.13;44.17;;;21.20;99.90;;;;;;5349817;26;20011;-75
2024/04/13 11:12:13;;;;;;;45.10;42.42;;;21.30;99.90;;;;;;5378307;26;19996;-74
2024/04/13 11:14:41;;;;;;;48.25;45.15;;;21.30;99.90;;;;;;5362227;26;20816;-74
2024/04/13 11:17:09;;;;;;;45.85;42.95;;;21.20;99.90;;;;;;5378958;26;20130;-75
2024/04/13 11:19:37;;;;;;;45.55;42.80;;;21.10;99.90;;;;;;5380583;26;20007;-76
2024/04/13 11:22:07;;;;;;;46.67;43.72;;;21.10;99.90;;;;;;5381720;26;20552;-76
2024/04/13 11:24:34;;;;;;;45.67;42.95;;;21.00;99.90;;;;;;5415935;26;20929;-77
2024/04/13 11:27:03;;;;;;;42.55;40.08;;;21.10;99.90;;;;;;5386229;26;19995;-76
2024/04/13 11:29:31;;;;;;;43.38;40.85;;;21.10;99.90;;;;;;5371179;26;20072;-74
2024/04/13 11:32:01;;;;;;;46.30;43.47;;;21.30;99.90;;;;;;5394138;26;20816;-75
2024/04/13 11:34:29;;;;;;;48.67;45.67;;;21.40;99.90;;;;;;5412035;26;20003;-75
2024/04/13 11:37:01;;;;;;;46.90;44.03;;;21.30;99.90;;;;;;5357950;26;20064;-75
2024/04/13 11:39:32;;;;;;;43.60;41.00;;;21.30;99.90;;;;;;5394075;26;20216;-75
2024/04/13 11:42:07;;;;;;;44.03;41.55;;;21.40;99.90;;;;;;5387792;26;20080;-76
2024/04/13 11:44:38;;;;;;;46.28;42.95;;;21.70;99.90;;;;;;5353356;26;20031;-75
2024/04/13 11:47:06;;;;;;;46.30;43.72;;;21.80;99.90;;;;;;5383947;26;20003;-76
2024/04/13 11:49:34;;;;;;;47.13;44.47;;;21.80;99.90;;;;;;5399491;26;20014;-75
2024/04/13 11:52:11;;;;;;;46.97;44.08;;;21.80;99.90;;;;;;5329306;26;20411;-77
2024/04/13 11:54:40;;;;;;;49.08;46.15;;;21.70;99.90;;;;;;5353038;26;20008;-76
2024/04/13 11:57:11;;;;;;;48.03;45.13;;;21.70;99.90;;;;;;5379872;26;20004;-76
2024/04/13 11:59:39;;;;;;;47.53;44.88;;;21.60;99.90;;;;;;5348824;26;20015;-74
2024/04/13 12:02:07;;;;;;;47.70;45.13;;;21.50;99.90;;;;;;5405437;26;20080;-80
2024/04/13 12:04:34;;;;;;;46.80;44.42;;;21.70;99.90;;;;;;5388033;26;22082;-74
2024/04/13 12:07:04;;;;;;;48.85;46.00;;;21.70;99.90;;;;;;5386023;26;20007;-78
2024/04/13 12:09:31;;;;;;;47.90;45.17;;;21.80;99.90;;;;;;5400638;26;20076;-75
2024/04/13 12:11:59;;;;;;;48.38;45.78;;;21.70;99.90;;;;;;5399468;26;20114;-76
2024/04/13 12:14:30;;;;;;;51.28;48.58;;;21.70;99.90;;;;;;5373185;26;20031;-76
2024/04/13 12:17:14;;;;;;;52.20;49.20;;;21.80;99.90;;;;;;5392054;26;20499;-75
2024/04/13 12:19:44;;;;;;;53.25;50.22;;;21.90;99.90;;;;;;5379696;26;20003;-76
2024/04/13 12:22:11;;;;;;;50.05;47.55;;;21.90;99.90;;;;;;5393131;26;20546;-75
2024/04/13 12:24:38;;;;;;;50.05;47.28;;;21.80;99.90;;;;;;5393447;26;20466;-75
2024/04/13 12:27:06;;;;;;;50.75;48.08;;;21.90;99.90;;;;;;5315547;26;20033;-75
2024/04/13 12:29:33;;;;;;;48.83;46.13;;;22.00;99.90;;;;;;5380915;26;20003;-75
2024/04/13 12:32:03;;;;;;;50.85;48.17;;;21.90;99.90;;;;;;5395474;26;20662;-76
2024/04/13 12:34:32;;;;;;;51.03;48.22;;;21.90;99.90;;;;;;5391131;26;20739;-76
2024/04/13 12:36:59;;;;;;;50.53;47.47;;;21.80;99.90;;;;;;5375218;26;20007;-73